Observations for CARDIFF-WALES ARPT, United Kingdom (EGFF)

EGFF 240920Z AUTO 31008KT 4800 BR OVC002 16/15 Q1016
EGFF 240850Z AUTO 30010KT 4300 HZ OVC003 16/15 Q1016
EGFF 240820Z AUTO 30009KT 4000 BR OVC002 16/15 Q1015
EGFF 240750Z 30010KT 2200 BR OVC003 15/15 Q1015 
EGFF 240720Z AUTO 30009KT 3200 BR OVC003 15/15 Q1015
EGFF 240650Z AUTO 29008KT 4500 HZ BKN009 OVC020 16/15 Q1015 
EGFF 240620Z AUTO VRB03KT 9999 OVC020 17/16 Q1014   
EGFF 240550Z AUTO 03004KT 9999 BKN021 OVC042 17/16 Q1014
EGFF 240520Z AUTO 04005KT 9999 FEW044 17/16 Q1013   
EGFF 240450Z AUTO 05006KT 9999 NCD 17/16 Q1013  
EGFF 240420Z AUTO 06006KT 9999 NCD 17/15 Q1013  
EGFF 240350Z AUTO 06006KT 9999 NCD 17/15 Q1013  
EGFF 240320Z AUTO 06005KT 9999 NCD 17/15 Q1013  
EGFF 240250Z AUTO 05006KT 9999 NCD 17/15 Q1013  
EGFF 240220Z AUTO 07007KT 9999 NCD 17/15 Q1013  
EGFF 240150Z AUTO 07008KT 9999 NCD 17/15 Q1013  
EGFF 240120Z AUTO 07008KT 9999 NCD 17/15 Q1013  
EGFF 240050Z AUTO 07007KT 9999 NCD 17/15 Q1013  
EGFF 240020Z AUTO 07007KT 9999 NCD 17/15 Q1013  
EGFF 232350Z AUTO 07008KT 9999 NCD 17/15 Q1013  
EGFF 232320Z AUTO 06008KT 9999 NCD 17/15 Q1013  
EGFF 232250Z AUTO 06008KT 9999 NCD 18/15 Q1013  
EGFF 232220Z AUTO 07007KT 9999 BKN043 18/16 Q1013   
EGFF 232150Z AUTO 07008KT 9999 BKN043 18/16 Q1013   
EGFF 232120Z AUTO 07008KT 9999 SCT042 18/16 Q1013   
EGFF 232050Z AUTO 06005KT 9999 FEW042 18/16 Q1014   
EGFF 232020Z AUTO 08006KT 9999 NCD 19/16 Q1013  
EGFF 231950Z AUTO 08007KT 9999 NCD 19/16 Q1013  
EGFF 231920Z AUTO 08007KT 9999 NCD 19/16 Q1013  
EGFF 231850Z AUTO 07007KT 9999 NCD 19/16 Q1013  
EGFF 231820Z AUTO 08008KT 9999 NCD 19/16 Q1013  
EGFF 231750Z AUTO 08009KT 9999 NCD 19/16 Q1012  
EGFF 231720Z AUTO 07010KT 9999 NCD 18/16 Q1013  
EGFF 231650Z AUTO 07010KT 9999 NCD 18/16 Q1013  
EGFF 231620Z AUTO 07011KT 9999 NCD 18/16 Q1013  
EGFF 231550Z AUTO 07011KT 050V120 9999 NCD 18/16 Q1013  
EGFF 231520Z AUTO 06015KT 9999 NCD 18/16 Q1013  
EGFF 231450Z AUTO 05011KT 9999 FEW033 SCT040 17/16 Q1014
EGFF 231420Z AUTO 05011KT 8000 -RA NCD 17/16 Q1014  
EGFF 231350Z AUTO 06012G22KT 040V140 6000 -RA SCT046/// //////CB 17/16 Q1015 RERA   
EGFF 231320Z 07008KT 6000 RA BKN045 17/15 Q1015 
EGFF 231250Z AUTO 06009KT 9999 -RA //////CB 18/15 Q1015 
EGFF 231220Z AUTO 08010KT 9999 -RA NCD 18/14 Q1015  
EGFF 231150Z AUTO 07012KT 9999 NCD 18/13 Q1015  
EGFF 231120Z AUTO 08011KT 9999 NCD 18/13 Q1015  
EGFF 231050Z AUTO 08012KT 9999 NCD 18/13 Q1015  
EGFF 231020Z AUTO 07012KT 9999 NCD 17/13 Q1016  
EGFF 230950Z AUTO 07014KT 9999 NCD 17/12 Q1016  
EGFF 230920Z AUTO 06012KT 9999 NCD 16/11 Q1016  
EGFF 230850Z AUTO 06012KT 9999 NCD 15/11 Q1016